Hoonah, Alaska
Current Conditions -  °F | °C
As of 5:56 PM on Monday 20 Oct 2014 (Local Time) from PAOH Reporting Station
Light Rain Light Rain  
Wind Chill: 47°   Ceiling: 4200
Heat Index: 47°   Visibility: 9mi
Dew Point: 46°   Wind: 0mph
Humidity: 96%   Direction: NA
Pressure: 29.35"   Gusts: NA
Location:  58.11°N, 135.45°W
Report Text: PAOH 210156Z AUTO 00000KT 9SM -RA BKN042 OVC048 08/08 A2935 RMK AO2 TSNO T00830077 RAB0058 P0001 SLP941 $
Loading
Personal Weather Stations






























Interactive Weather Map
Tropical Storm Tracking
New forecast layout! Learn more

10-Day Weather Forecast

Advertisements
Track Severe Weather on mobile